Time;durP1;ratioP1;P1;durP2;ratioP2;P2;SDS_P1;SDS_P2;PMS_P1;PMS_P2;Temp;Humidity;BMP_temperature;BMP_pressure;BME280_temperature;BME280_humidity;BME280_pressure;Samples;Min_cycle;Max_cycle;Signal;HPM_P1;HPM_P2
2022/11/07 00:00:25;;;;;;;0.10;0.10;;;8.00;99.90;6.90;96849.00;;;;5075484;28;20221;-72
2022/11/07 00:02:53;;;;;;;0.10;0.10;;;8.00;99.90;6.90;96854.00;;;;5074403;28;20205;-71
2022/11/07 00:05:23;;;;;;;0.10;0.10;;;7.90;99.90;6.90;96866.00;;;;5070848;28;20190;-74
2022/11/07 00:07:51;;;;;;;0.10;0.10;;;7.90;99.90;6.90;96855.00;;;;5072296;28;20840;-72
2022/11/07 00:10:19;;;;;;;0.10;0.10;;;7.90;99.90;6.90;96860.00;;;;5073037;28;20214;-72
2022/11/07 00:12:47;;;;;;;0.10;0.10;;;8.00;99.90;6.90;96890.00;;;;5070559;28;20760;-72
2022/11/07 00:15:16;;;;;;;0.10;0.10;;;8.00;99.90;6.90;96878.00;;;;5070621;28;20248;-73
2022/11/07 00:17:44;;;;;;;0.10;0.10;;;8.00;99.90;7.00;96861.00;;;;5070216;28;20208;-72
2022/11/07 00:20:12;;;;;;;0.10;0.10;;;8.10;99.90;7.00;96870.00;;;;5074360;28;20221;-72
2022/11/07 00:22:41;;;;;;;0.10;0.10;;;8.10;99.90;7.20;96860.00;;;;5077836;28;20315;-74
2022/11/07 00:25:09;;;;;;;0.10;0.10;;;8.20;99.90;7.20;96872.00;;;;5081754;28;20223;-73
2022/11/07 00:27:38;;;;;;;0.10;0.10;;;8.30;99.90;7.30;96869.00;;;;5073342;28;20535;-72
2022/11/07 00:30:07;;;;;;;0.10;0.10;;;8.30;99.90;7.30;96866.00;;;;5071943;28;20750;-73
2022/11/07 00:32:35;;;;;;;0.10;0.10;;;8.30;99.90;7.30;96875.00;;;;5072872;28;20347;-72
2022/11/07 00:35:03;;;;;;;0.10;0.10;;;8.40;99.90;7.30;96876.00;;;;5065388;28;20197;-73
2022/11/07 00:37:31;;;;;;;0.10;0.10;;;8.40;99.90;7.40;96877.00;;;;5068833;28;20217;-73
2022/11/07 00:40:01;;;;;;;0.10;0.10;;;8.40;99.90;7.40;96871.00;;;;5073931;28;20258;-72
2022/11/07 00:42:29;;;;;;;0.10;0.10;;;8.40;99.90;7.40;96889.00;;;;5073643;28;20189;-73
2022/11/07 00:44:57;;;;;;;0.03;0.03;;;8.50;99.90;7.50;96897.00;;;;5055190;28;20210;-73
2022/11/07 00:47:25;;;;;;;0.10;0.10;;;8.50;99.90;7.50;96871.00;;;;5065867;28;20530;-72
2022/11/07 00:49:53;;;;;;;0.00;0.00;;;8.50;99.90;7.40;96888.00;;;;5072176;28;20248;-72
2022/11/07 00:52:21;;;;;;;0.10;0.10;;;8.50;99.90;7.50;96888.00;;;;5075809;22;20237;-74
2022/11/07 00:54:49;;;;;;;0.10;0.10;;;8.50;99.90;7.50;96879.00;;;;5055128;28;20198;-74
2022/11/07 00:57:19;;;;;;;0.10;0.10;;;8.50;99.90;7.40;96867.00;;;;5053023;28;20202;-74
2022/11/07 00:59:47;;;;;;;0.10;0.10;;;8.50;99.90;7.40;96866.00;;;;5047713;28;20209;-74
2022/11/07 01:02:15;;;;;;;0.10;0.10;;;8.40;99.90;7.40;96874.00;;;;5054796;28;20268;-73
2022/11/07 01:07:29;;;;;;;0.10;0.10;;;8.40;99.90;7.40;96873.00;;;;5051123;28;20244;-73
2022/11/07 01:09:57;;;;;;;0.10;0.10;;;8.40;99.90;7.40;96877.00;;;;5053171;28;20268;-73
2022/11/07 01:12:27;;;;;;;0.10;0.10;;;8.40;99.90;7.40;96889.00;;;;5052769;28;20214;-73
2022/11/07 01:14:55;;;;;;;0.10;0.10;;;8.40;99.90;7.30;96883.00;;;;5053777;28;20738;-73
2022/11/07 01:17:23;;;;;;;0.10;0.10;;;8.40;99.90;7.40;96880.00;;;;5046113;28;20202;-73
2022/11/07 01:19:51;;;;;;;0.10;0.10;;;8.50;99.90;7.40;96883.00;;;;5050749;28;20202;-73
2022/11/07 01:22:19;;;;;;;0.10;0.10;;;8.50;99.90;7.40;96888.00;;;;5046260;28;20627;-73
2022/11/07 01:24:47;;;;;;;0.10;0.10;;;8.40;99.90;7.40;96894.00;;;;5052657;28;20236;-73
2022/11/07 01:27:15;;;;;;;0.10;0.10;;;8.50;99.90;7.40;96891.00;;;;5051658;28;20269;-73
2022/11/07 01:29:44;;;;;;;0.10;0.10;;;8.50;99.90;7.40;96899.00;;;;5052028;28;20619;-73
2022/11/07 01:32:12;;;;;;;0.10;0.10;;;8.50;99.90;7.40;96912.00;;;;5048476;28;20223;-73
2022/11/07 01:34:41;;;;;;;0.10;0.10;;;8.50;99.90;7.50;96900.00;;;;5052559;28;20199;-73
2022/11/07 01:37:09;;;;;;;0.10;0.10;;;8.60;99.90;7.50;96893.00;;;;5053421;28;20191;-73
2022/11/07 01:39:37;;;;;;;0.10;0.10;;;8.60;99.90;7.60;96881.00;;;;5051689;28;20937;-73
2022/11/07 01:42:06;;;;;;;0.10;0.10;;;8.60;99.90;7.60;96862.00;;;;5054740;28;20325;-73
2022/11/07 01:44:57;;;;;;;0.10;0.10;;;8.70;99.90;7.70;96894.00;;;;5060753;28;20206;-73
2022/11/07 01:47:30;;;;;;;0.10;0.10;;;8.70;99.90;7.70;96896.00;;;;5061094;28;20210;-73
2022/11/07 01:50:00;;;;;;;0.10;0.10;;;8.70;99.90;7.70;96910.00;;;;5059783;28;20201;-73
2022/11/07 01:52:33;;;;;;;0.10;0.10;;;8.70;99.90;7.70;96885.00;;;;5033855;28;20233;-73
2022/11/07 01:55:08;;;;;;;0.10;0.10;;;8.80;99.90;7.80;96877.00;;;;5027055;28;20207;-73
2022/11/07 01:57:42;;;;;;;0.10;0.10;;;8.80;99.90;7.80;96892.00;;;;5045594;28;20232;-73
2022/11/07 02:00:17;;;;;;;0.10;0.10;;;8.80;99.90;7.70;96894.00;;;;5027472;28;20199;-73
2022/11/07 02:02:50;;;;;;;0.10;0.10;;;8.80;99.90;7.80;96908.00;;;;5050714;28;20712;-73
2022/11/07 02:05:27;;;;;;;0.10;0.10;;;8.80;99.90;7.80;96908.00;;;;5046009;28;20209;-73
2022/11/07 02:07:56;;;;;;;0.10;0.10;;;8.80;99.90;7.80;96900.00;;;;5049156;28;20202;-74
2022/11/07 02:10:26;;;;;;;0.10;0.10;;;8.80;99.90;7.80;96892.00;;;;5029277;28;20210;-74
2022/11/07 02:12:58;;;;;;;0.17;0.17;;;8.80;99.90;7.80;96902.00;;;;5050567;28;20609;-73
2022/11/07 02:15:28;;;;;;;0.10;0.10;;;8.80;99.90;7.80;96895.00;;;;5051684;28;20733;-73
2022/11/07 02:18:00;;;;;;;0.10;0.10;;;8.80;99.90;7.80;96891.00;;;;5050368;28;20295;-73
2022/11/07 02:20:28;;;;;;;0.10;0.10;;;8.80;99.90;7.80;96888.00;;;;5050563;28;20190;-73
2022/11/07 02:23:00;;;;;;;0.10;0.10;;;8.80;99.90;7.80;96899.00;;;;5051018;28;20766;-73
2022/11/07 02:25:30;;;;;;;0.10;0.10;;;8.90;99.90;7.80;96908.00;;;;5048878;28;20296;-73
2022/11/07 02:28:05;;;;;;;0.10;0.10;;;8.80;99.90;7.80;96897.00;;;;5051330;28;20337;-73
2022/11/07 02:30:34;;;;;;;0.10;0.10;;;8.80;99.90;7.90;96895.00;;;;5051284;28;20267;-72
2022/11/07 02:33:03;;;;;;;0.10;0.10;;;8.90;99.90;7.80;96894.00;;;;5044155;28;20195;-73
2022/11/07 02:35:40;;;;;;;0.10;0.10;;;8.90;99.90;7.80;96893.00;;;;5047857;28;20261;-72
2022/11/07 02:38:15;;;;;;;0.10;0.10;;;8.90;99.90;7.80;96911.00;;;;5043457;28;20623;-72
2022/11/07 02:40:51;;;;;;;0.10;0.10;;;8.80;99.90;7.80;96913.00;;;;5043403;28;20835;-73
2022/11/07 02:43:23;;;;;;;0.10;0.10;;;8.80;99.90;7.80;96900.00;;;;5047185;28;20198;-73
2022/11/07 02:45:52;;;;;;;0.10;0.10;;;8.80;99.90;7.80;96908.00;;;;5049213;28;20704;-74
2022/11/07 02:48:20;;;;;;;0.10;0.10;;;8.80;99.90;7.80;96897.00;;;;5045641;28;20268;-73
2022/11/07 02:50:48;;;;;;;0.10;0.10;;;8.80;99.90;7.80;96888.00;;;;5047850;28;20268;-73
2022/11/07 02:53:16;;;;;;;0.10;0.10;;;8.90;99.90;7.80;96886.00;;;;5033456;28;20202;-74
2022/11/07 02:55:46;;;;;;;0.10;0.10;;;8.80;99.90;7.80;96898.00;;;;5051037;28;20202;-74
2022/11/07 02:58:14;;;;;;;0.10;0.10;;;8.80;99.90;7.80;96919.00;;;;5044177;28;20220;-74
2022/11/07 03:00:42;;;;;;;0.10;0.10;;;8.90;99.90;7.80;96918.00;;;;5050971;28;20252;-74
2022/11/07 03:03:10;;;;;;;0.10;0.10;;;8.90;99.90;7.80;96925.00;;;;5055382;28;20198;-73
2022/11/07 03:05:39;;;;;;;0.10;0.10;;;8.90;99.90;7.80;96932.00;;;;5049811;28;20194;-73
2022/11/07 03:08:07;;;;;;;0.10;0.10;;;8.80;99.90;7.80;96934.00;;;;5049968;28;20259;-73
2022/11/07 03:10:35;;;;;;;0.10;0.10;;;8.90;99.90;7.90;96943.00;;;;5050978;28;20663;-73
2022/11/07 03:13:05;;;;;;;0.10;0.10;;;8.90;99.90;7.80;96941.00;;;;5051317;28;20190;-74
2022/11/07 03:15:33;;;;;;;0.10;0.10;;;8.90;99.90;7.80;96949.00;;;;5050511;28;20676;-74
2022/11/07 03:18:01;;;;;;;0.10;0.10;;;8.90;99.90;7.80;96957.00;;;;5048850;28;20546;-74
2022/11/07 03:20:29;;;;;;;0.10;0.10;;;8.90;99.90;7.80;96961.00;;;;5052030;28;20542;-74
2022/11/07 03:22:57;;;;;;;0.10;0.10;;;8.80;99.90;7.80;96965.00;;;;5051631;28;20226;-74
2022/11/07 03:25:25;;;;;;;0.10;0.10;;;8.80;99.90;7.80;96967.00;;;;5050964;28;20190;-74
2022/11/07 03:27:53;;;;;;;0.10;0.10;;;8.80;99.90;7.80;96979.00;;;;5048570;28;20206;-74
2022/11/07 03:30:23;;;;;;;0.10;0.10;;;8.80;99.90;7.80;96969.00;;;;5047014;28;20194;-73
2022/11/07 03:32:52;;;;;;;0.10;0.10;;;8.80;99.90;7.80;96975.00;;;;5050477;28;20230;-73
2022/11/07 03:35:21;;;;;;;0.10;0.10;;;8.80;99.90;7.80;96960.00;;;;5050205;28;20610;-73
2022/11/07 03:37:50;;;;;;;0.10;0.10;;;8.80;99.90;7.80;96975.00;;;;5049938;28;20261;-73
2022/11/07 03:40:18;;;;;;;0.10;0.10;;;8.80;99.90;7.80;96972.00;;;;5050851;28;20214;-73
2022/11/07 03:42:46;;;;;;;0.05;0.05;;;8.80;99.90;7.80;96982.00;;;;5045975;28;20230;-73
2022/11/07 03:45:16;;;;;;;0.10;0.10;;;8.80;99.90;7.80;96963.00;;;;5041019;28;20879;-73
2022/11/07 03:47:47;;;;;;;0.10;0.10;;;8.80;99.90;7.80;96961.00;;;;5027238;28;20237;-73
2022/11/07 03:50:18;;;;;;;0.00;0.00;;;8.80;99.90;7.80;96971.00;;;;5048532;28;20252;-73
2022/11/07 03:52:47;;;;;;;0.10;0.10;;;8.80;99.90;7.80;96978.00;;;;5053749;28;20276;-73
2022/11/07 03:55:17;;;;;;;0.10;0.10;;;8.80;99.90;7.80;96965.00;;;;5054239;28;20723;-73
2022/11/07 03:57:46;;;;;;;0.10;0.10;;;8.80;99.90;7.80;96959.00;;;;5049670;28;20202;-73
2022/11/07 04:00:16;;;;;;;0.10;0.10;;;8.80;99.90;7.70;96975.00;;;;5054184;28;20243;-73
2022/11/07 04:02:46;;;;;;;0.10;0.10;;;8.70;99.90;7.70;96975.00;;;;5053942;28;20308;-73
2022/11/07 04:05:14;;;;;;;0.10;0.10;;;8.70;99.90;7.70;96976.00;;;;5053504;28;20198;-73
2022/11/07 04:07:42;;;;;;;0.10;0.10;;;8.70;99.90;7.70;96986.00;;;;5052583;28;20250;-73
2022/11/07 04:10:10;;;;;;;0.10;0.10;;;8.70;99.90;7.80;96985.00;;;;5056211;28;20193;-73
2022/11/07 04:18:11;;;;;;;0.10;0.10;;;8.80;99.90;7.80;96991.00;;;;5053249;28;20213;-73
2022/11/07 04:20:40;;;;;;;0.10;0.10;;;8.80;99.90;7.70;96989.00;;;;5054660;28;20594;-73
2022/11/07 04:23:08;;;;;;;0.10;0.10;;;8.80;99.90;7.70;96921.00;;;;5053507;28;20279;-73
2022/11/07 04:28:27;;;;;;;0.10;0.10;;;8.80;99.90;7.80;96998.00;;;;5002131;28;20726;-73
2022/11/07 04:30:55;;;;;;;0.10;0.10;;;8.80;99.90;7.70;97004.00;;;;5049073;28;20246;-73
2022/11/07 04:33:24;;;;;;;0.10;0.10;;;8.80;99.90;7.70;97011.00;;;;5049172;28;20213;-73
2022/11/07 04:35:52;;;;;;;0.10;0.10;;;8.70;99.90;7.60;97005.00;;;;5052485;28;20703;-73
2022/11/07 04:38:21;;;;;;;0.10;0.10;;;8.70;99.90;7.60;97005.00;;;;5052979;28;20657;-73
2022/11/07 04:40:54;;;;;;;0.10;0.10;;;8.60;99.90;7.50;97007.00;;;;5051394;28;20229;-72
2022/11/07 04:43:23;;;;;;;0.10;0.10;;;8.60;99.90;7.50;97009.00;;;;5053012;28;20692;-73
2022/11/07 04:45:52;;;;;;;0.10;0.10;;;8.60;99.90;7.40;97014.00;;;;5051775;28;20194;-73
2022/11/07 04:48:20;;;;;;;0.10;0.10;;;8.50;99.90;7.40;97000.00;;;;5048020;28;20592;-73
2022/11/07 04:50:50;;;;;;;0.10;0.10;;;8.50;99.90;7.40;97033.00;;;;5049741;28;20607;-74
2022/11/07 04:53:18;;;;;;;0.10;0.10;;;8.40;99.90;7.50;97034.00;;;;5056988;28;20604;-73
2022/11/07 04:55:46;;;;;;;0.10;0.10;;;8.50;99.90;7.40;97036.00;;;;5049695;28;20684;-73
2022/11/07 04:58:15;;;;;;;0.10;0.10;;;8.40;99.90;7.30;97032.00;;;;5052702;28;20684;-73
2022/11/07 05:00:43;;;;;;;0.10;0.10;;;8.30;99.90;7.30;97030.00;;;;5034974;28;20206;-73
2022/11/07 05:03:11;;;;;;;0.10;0.10;;;8.30;99.90;7.20;97014.00;;;;5053472;28;20226;-73
2022/11/07 05:05:39;;;;;;;0.10;0.10;;;8.30;99.90;7.20;97040.00;;;;5035130;28;20277;-73
2022/11/07 05:08:09;;;;;;;0.10;0.10;;;8.20;99.90;7.20;97039.00;;;;5047313;28;20257;-74
2022/11/07 05:10:38;;;;;;;0.10;0.10;;;8.20;99.90;7.20;97042.00;;;;5047176;28;20277;-74
2022/11/07 05:13:06;;;;;;;0.10;0.10;;;8.30;99.90;7.20;97034.00;;;;5037841;28;20600;-74
2022/11/07 05:15:34;;;;;;;0.10;0.10;;;8.20;99.90;7.20;97034.00;;;;5056211;28;20229;-74
2022/11/07 05:18:02;;;;;;;0.10;0.10;;;8.20;99.90;7.20;97004.00;;;;5049247;28;20202;-74
2022/11/07 05:20:34;;;;;;;0.10;0.10;;;8.20;99.90;7.20;97035.00;;;;5049963;28;20660;-73
2022/11/07 05:23:16;;;;;;;0.10;0.10;;;8.30;99.90;7.20;97027.00;;;;5042296;28;20214;-74
2022/11/07 05:25:49;;;;;;;0.10;0.10;;;8.30;99.90;7.20;97033.00;;;;5053320;28;20198;-74
2022/11/07 05:28:20;;;;;;;0.10;0.10;;;8.30;99.90;7.20;97043.00;;;;5053007;28;20189;-74
2022/11/07 05:30:59;;;;;;;0.10;0.10;;;8.30;99.90;7.20;97038.00;;;;5052867;28;20221;-74
2022/11/07 05:33:28;;;;;;;0.10;0.10;;;8.30;99.90;7.20;97060.00;;;;5051028;28;20198;-74
2022/11/07 05:35:56;;;;;;;0.10;0.10;;;8.20;99.90;7.20;97039.00;;;;5062140;28;20197;-74
2022/11/07 05:38:24;;;;;;;0.10;0.10;;;8.30;99.90;7.30;97066.00;;;;5060348;28;20198;-74
2022/11/07 05:40:54;;;;;;;0.10;0.10;;;8.30;99.90;7.30;97052.00;;;;5066936;28;20202;-74
2022/11/07 05:43:22;;;;;;;0.10;0.10;;;8.30;99.90;7.30;97051.00;;;;5069779;28;20264;-74
2022/11/07 05:45:51;;;;;;;0.10;0.10;;;8.40;99.90;7.40;97047.00;;;;5054176;28;20739;-74
2022/11/07 05:48:19;;;;;;;0.10;0.10;;;8.40;99.90;7.40;97073.00;;;;5048030;28;20199;-74
2022/11/07 05:50:47;;;;;;;0.10;0.10;;;8.50;99.90;7.40;97070.00;;;;5048625;28;20214;-74
2022/11/07 05:53:15;;;;;;;0.10;0.10;;;8.50;99.90;7.50;97082.00;;;;5039829;28;20654;-74
2022/11/07 05:55:44;;;;;;;0.10;0.10;;;8.50;99.90;7.50;97067.00;;;;5045930;28;20199;-74
2022/11/07 05:58:14;;;;;;;0.10;0.10;;;8.50;99.90;7.50;97092.00;;;;5033517;28;20202;-74
2022/11/07 06:00:42;;;;;;;0.10;0.10;;;8.60;99.90;7.60;97087.00;;;;5049367;28;20198;-74
2022/11/07 06:03:12;;;;;;;0.10;0.10;;;8.60;99.90;7.60;97091.00;;;;5047477;28;20214;-74
2022/11/07 06:05:43;;;;;;;0.10;0.10;;;8.60;99.90;7.60;97097.00;;;;5051274;28;20199;-74
2022/11/07 06:08:13;;;;;;;0.10;0.10;;;8.70;99.90;7.70;97107.00;;;;5038717;28;20205;-74
2022/11/07 06:10:43;;;;;;;0.10;0.10;;;8.70;99.90;7.70;97090.00;;;;5053343;28;20743;-73
2022/11/07 06:13:15;;;;;;;0.10;0.10;;;8.70;99.90;7.80;97102.00;;;;5051367;28;20245;-74
2022/11/07 06:15:45;;;;;;;0.10;0.10;;;8.80;99.90;7.80;97102.00;;;;5049628;28;20662;-74
2022/11/07 06:18:16;;;;;;;0.10;0.10;;;8.80;99.90;7.90;97076.00;;;;5049212;28;20572;-74
2022/11/07 06:20:45;;;;;;;0.10;0.10;;;8.90;99.90;7.90;97101.00;;;;5044658;28;20190;-74
2022/11/07 06:23:14;;;;;;;0.10;0.10;;;8.90;99.90;8.00;97105.00;;;;5051340;28;20255;-74
2022/11/07 06:25:43;;;;;;;0.10;0.10;;;9.00;99.90;8.00;97086.00;;;;5048497;28;20637;-74
2022/11/07 06:28:16;;;;;;;0.10;0.10;;;9.00;99.90;8.10;97068.00;;;;5050843;28;20205;-75
2022/11/07 06:30:44;;;;;;;0.10;0.10;;;9.10;99.90;8.00;97085.00;;;;5052455;28;20195;-74
2022/11/07 06:33:16;;;;;;;0.10;0.10;;;9.00;99.90;8.10;97105.00;;;;5047426;28;20213;-74
2022/11/07 06:35:46;;;;;;;0.10;0.10;;;9.10;99.90;8.10;97104.00;;;;5050243;28;20198;-74
2022/11/07 06:38:15;;;;;;;0.10;0.10;;;9.10;99.90;8.10;97102.00;;;;5051758;28;20194;-74
2022/11/07 06:40:44;;;;;;;0.10;0.10;;;9.10;99.90;8.10;97100.00;;;;5050762;28;20567;-74
2022/11/07 06:43:14;;;;;;;0.10;0.10;;;9.10;99.90;8.10;97070.00;;;;5051019;28;20210;-74
2022/11/07 06:45:46;;;;;;;0.10;0.10;;;9.20;99.90;8.20;97077.00;;;;5051534;28;20564;-74
2022/11/07 06:48:14;;;;;;;0.10;0.10;;;9.20;99.90;8.20;97081.00;;;;5043085;28;20210;-74
2022/11/07 06:50:42;;;;;;;0.10;0.10;;;9.20;99.90;8.20;97094.00;;;;5029601;28;20225;-74
2022/11/07 06:53:13;;;;;;;0.03;0.03;;;9.20;99.90;8.20;97088.00;;;;5050195;28;20198;-73
2022/11/07 06:55:42;;;;;;;0.10;0.10;;;9.20;99.90;8.20;97096.00;;;;5054041;28;20285;-73
2022/11/07 06:58:10;;;;;;;0.10;0.10;;;9.30;99.90;8.30;97099.00;;;;5052311;28;20202;-73
2022/11/07 07:00:38;;;;;;;0.10;0.10;;;9.30;99.90;8.30;97106.00;;;;5049978;28;20735;-73
2022/11/07 07:03:08;;;;;;;0.10;0.10;;;9.30;99.90;8.30;97096.00;;;;5048532;28;20583;-73
2022/11/07 07:05:36;;;;;;;0.10;0.10;;;9.40;99.90;8.40;97131.00;;;;5046992;28;20252;-73
2022/11/07 07:08:06;;;;;;;0.10;0.10;;;9.40;99.90;8.50;97131.00;;;;5043129;28;20666;-72
2022/11/07 07:10:39;;;;;;;0.10;0.10;;;9.50;99.90;8.50;97131.00;;;;5050261;28;20657;-73
2022/11/07 07:13:07;;;;;;;0.10;0.10;;;9.50;99.90;8.60;97136.00;;;;5046226;28;20194;-72
2022/11/07 07:15:36;;;;;;;0.10;0.10;;;9.60;99.90;8.70;97140.00;;;;5047269;28;20594;-72
2022/11/07 07:18:20;;;;;;;0.10;0.10;;;9.60;99.90;8.70;97137.00;;;;5032108;28;20247;-73
2022/11/07 07:20:48;;;;;;;0.10;0.10;;;9.70;99.90;8.70;97141.00;;;;5045902;28;20668;-72
2022/11/07 07:23:18;;;;;;;0.10;0.10;;;9.70;99.90;8.70;97113.00;;;;5052126;28;20244;-73
2022/11/07 07:25:48;;;;;;;0.10;0.10;;;9.70;99.90;8.80;97120.00;;;;5056441;28;20226;-73
2022/11/07 07:28:16;;;;;;;0.10;0.10;;;9.80;99.90;8.90;97120.00;;;;5058213;28;20598;-73
2022/11/07 07:30:44;;;;;;;0.10;0.10;;;9.80;99.90;8.90;97109.00;;;;5054817;28;20654;-74
2022/11/07 07:33:21;;;;;;;0.10;0.10;;;9.90;99.90;8.90;97127.00;;;;5054067;28;20198;-73
2022/11/07 07:35:49;;;;;;;0.10;0.10;;;9.90;99.90;8.90;97126.00;;;;5048210;28;20256;-73
2022/11/07 07:38:17;;;;;;;0.10;0.10;;;9.90;99.90;8.90;97120.00;;;;5048164;28;20199;-73
2022/11/07 07:40:45;;;;;;;0.10;0.10;;;9.90;99.90;9.00;97133.00;;;;5045533;28;20202;-73
2022/11/07 07:43:13;;;;;;;0.10;0.10;;;10.00;99.90;9.00;97125.00;;;;5048412;28;20195;-73
2022/11/07 07:45:41;;;;;;;0.10;0.10;;;10.00;99.90;9.10;97131.00;;;;5054653;28;20202;-73
2022/11/07 07:48:09;;;;;;;0.10;0.10;;;10.00;99.90;9.10;97135.00;;;;5049763;28;20202;-73
2022/11/07 07:50:39;;;;;;;0.10;0.10;;;10.00;99.90;9.10;97145.00;;;;5051448;28;20195;-74
2022/11/07 07:53:07;;;;;;;0.10;0.10;;;10.10;99.90;9.10;97147.00;;;;5049398;28;20669;-73
2022/11/07 07:55:41;;;;;;;0.10;0.10;;;10.10;99.90;9.10;97144.00;;;;5042726;28;20210;-73
2022/11/07 07:58:09;;;;;;;0.10;0.10;;;10.10;99.90;9.20;97147.00;;;;5042489;28;20186;-74
2022/11/07 08:00:38;;;;;;;0.10;0.10;;;10.20;99.90;9.20;97162.00;;;;5045132;28;20347;-73
2022/11/07 08:03:09;;;;;;;0.10;0.10;;;10.20;99.90;9.30;97156.00;;;;5042002;28;20214;-73
2022/11/07 08:05:39;;;;;;;0.10;0.10;;;10.20;99.90;9.30;97155.00;;;;5048651;28;20256;-73
2022/11/07 08:08:08;;;;;;;0.10;0.10;;;10.30;99.90;9.30;97164.00;;;;5048758;28;20249;-73
2022/11/07 08:10:37;;;;;;;0.00;0.00;;;10.30;99.90;9.40;97149.00;;;;5050612;28;20198;-73
2022/11/07 08:13:10;;;;;;;0.10;0.10;;;10.30;99.90;9.40;97143.00;;;;5047224;28;20205;-73
2022/11/07 08:15:38;;;;;;;0.10;0.10;;;10.30;99.90;9.50;97147.00;;;;5045466;28;20222;-73
2022/11/07 08:18:06;;;;;;;0.10;0.10;;;10.40;99.90;9.50;97152.00;;;;5050471;28;20205;-73
2022/11/07 08:20:35;;;;;;;0.10;0.10;;;10.40;99.90;9.50;97147.00;;;;5053366;28;20703;-74
2022/11/07 08:23:08;;;;;;;0.10;0.10;;;10.40;99.90;9.50;97150.00;;;;5053879;28;20256;-73
2022/11/07 08:25:48;;;;;;;0.10;0.10;;;10.50;99.90;9.20;97153.00;;;;5045689;28;20310;-73
2022/11/07 08:28:16;;;;;;;0.10;0.10;;;10.50;99.90;9.60;97157.00;;;;5046102;28;20199;-73
2022/11/07 08:30:44;;;;;;;0.10;0.10;;;10.50;99.90;9.70;97126.00;;;;5051994;28;20202;-73
2022/11/07 08:33:12;;;;;;;0.10;0.10;;;10.60;99.90;9.70;97150.00;;;;5048538;28;20236;-73
2022/11/07 08:35:41;;;;;;;0.10;0.10;;;10.60;99.90;9.70;97157.00;;;;5052073;28;20199;-73
2022/11/07 08:38:11;;;;;;;0.10;0.10;;;10.60;99.90;9.80;97158.00;;;;5049742;28;20195;-73
2022/11/07 08:40:39;;;;;;;0.10;0.10;;;10.70;99.90;9.90;97160.00;;;;5041952;28;21145;-73
2022/11/07 08:43:07;;;;;;;0.10;0.10;;;10.80;99.90;9.90;97166.00;;;;5051441;28;20202;-73
2022/11/07 08:45:35;;;;;;;0.00;0.00;;;10.80;99.90;10.00;97159.00;;;;5048438;28;20256;-73
2022/11/07 08:48:04;;;;;;;0.10;0.10;;;10.90;99.90;10.00;97141.00;;;;5052252;28;20198;-73
2022/11/07 08:50:32;;;;;;;0.10;0.10;;;10.90;99.90;9.90;97142.00;;;;5047520;28;20704;-73
2022/11/07 08:53:00;;;;;;;0.10;0.10;;;10.90;99.90;10.00;97145.00;;;;5052414;28;20277;-73
2022/11/07 08:55:31;;;;;;;0.10;0.10;;;11.00;99.90;10.00;97157.00;;;;5051084;28;20194;-73
2022/11/07 08:58:01;;;;;;;0.10;0.10;;;10.90;99.90;10.10;97147.00;;;;5036857;28;20590;-73
2022/11/07 09:00:30;;;;;;;0.10;0.10;;;11.00;99.90;10.10;97159.00;;;;5051629;28;20213;-73
2022/11/07 09:03:02;;;;;;;0.10;0.10;;;11.00;99.90;10.10;97137.00;;;;5052219;28;20685;-74
2022/11/07 09:05:50;;;;;;;0.00;0.00;;;11.10;99.90;10.20;97132.00;;;;5044034;28;20304;-73
2022/11/07 09:08:18;;;;;;;0.10;0.10;;;11.10;99.90;10.30;97143.00;;;;5025701;28;20676;-73
2022/11/07 09:10:48;;;;;;;0.10;0.10;;;11.20;99.90;10.30;97158.00;;;;5052410;28;20198;-73
2022/11/07 09:13:16;;;;;;;0.10;0.10;;;11.20;99.90;10.30;97157.00;;;;5049089;28;20199;-73
2022/11/07 09:15:45;;;;;;;0.10;0.10;;;11.30;99.90;10.40;97163.00;;;;5050959;28;20195;-75
2022/11/07 09:18:19;;;;;;;0.10;0.10;;;11.30;99.90;10.40;97151.00;;;;5047797;28;20225;-73
2022/11/07 09:20:50;;;;;;;0.10;0.10;;;11.30;99.90;10.00;97136.00;;;;5050769;28;20194;-73
2022/11/07 09:23:21;;;;;;;0.10;0.10;;;11.40;99.90;10.60;97157.00;;;;5050679;28;20235;-73
2022/11/07 09:25:50;;;;;;;0.10;0.10;;;11.50;99.90;10.70;97167.00;;;;5051616;28;20227;-73
2022/11/07 09:28:18;;;;;;;0.00;0.00;;;11.60;99.90;10.80;97177.00;;;;5052034;28;20198;-73
2022/11/07 09:30:46;;;;;;;0.10;0.10;;;11.60;99.90;10.80;97170.00;;;;5044751;28;20737;-73
2022/11/07 09:33:14;;;;;;;0.10;0.10;;;11.70;99.90;10.90;97168.00;;;;5050853;28;20248;-74
2022/11/07 09:35:43;;;;;;;0.10;0.10;;;11.80;99.90;11.00;97185.00;;;;5065403;28;20276;-74
2022/11/07 09:38:11;;;;;;;0.00;0.00;;;11.80;99.90;11.10;97176.00;;;;5053392;28;20203;-73
2022/11/07 09:40:49;;;;;;;0.10;0.10;;;11.90;99.90;11.20;97182.00;;;;5048710;28;20206;-73
2022/11/07 09:43:41;;;;;;;0.10;0.10;;;12.00;99.90;11.30;97152.00;;;;5043163;28;20190;-73
2022/11/07 09:46:27;;;;;;;0.10;0.10;;;12.10;99.90;11.40;97181.00;;;;5044316;28;20211;-73
2022/11/07 09:49:03;;;;;;;0.10;0.10;;;12.20;99.90;11.50;97175.00;;;;5046887;28;20198;-73
2022/11/07 09:51:38;;;;;;;0.10;0.10;;;12.30;99.90;11.60;97167.00;;;;5042760;28;20225;-73
2022/11/07 09:54:12;;;;;;;0.10;0.10;;;12.50;99.90;11.70;97163.00;;;;5052497;28;20193;-73
2022/11/07 09:56:43;;;;;;;0.00;0.00;;;12.50;99.90;11.80;97172.00;;;;5049519;28;20595;-75
2022/11/07 09:59:23;;;;;;;0.10;0.10;;;12.60;99.90;11.90;97175.00;;;;5050911;28;20201;-73
2022/11/07 10:01:51;;;;;;;0.10;0.10;;;12.70;99.90;11.80;97173.00;;;;5049227;28;20222;-72
2022/11/07 10:04:23;;;;;;;0.10;0.10;;;12.60;99.90;11.90;97162.00;;;;5051216;28;20229;-72
2022/11/07 10:07:02;;;;;;;0.10;0.10;;;12.70;99.90;11.80;97154.00;;;;5050851;28;20194;-73
2022/11/07 10:09:44;;;;;;;0.00;0.00;;;12.70;99.90;11.80;97167.00;;;;5050743;28;20198;-73
2022/11/07 10:12:27;;;;;;;0.10;0.10;;;12.70;99.90;11.70;97191.00;;;;5049733;28;20700;-73
2022/11/07 10:15:07;;;;;;;0.00;0.00;;;12.60;99.90;11.70;97196.00;;;;5051769;28;20210;-74
2022/11/07 10:17:48;;;;;;;0.10;0.10;;;12.50;99.90;11.60;97184.00;;;;5050372;28;20198;-73
2022/11/07 10:20:32;;;;;;;0.10;0.10;;;12.50;99.90;11.60;97196.00;;;;5048138;28;20190;-73
2022/11/07 10:23:22;;;;;;;0.10;0.10;;;12.40;99.90;11.70;97198.00;;;;5053382;28;20239;-72
2022/11/07 10:26:04;;;;;;;0.10;0.10;;;12.50;99.90;11.70;97187.00;;;;5053675;28;20233;-73
2022/11/07 10:28:36;;;;;;;0.10;0.10;;;12.50;99.90;11.60;97186.00;;;;5029181;28;20217;-72
2022/11/07 10:31:11;;;;;;;0.10;0.10;;;12.40;99.90;11.60;97204.00;;;;5050036;28;20762;-75
2022/11/07 10:33:49;;;;;;;0.10;0.10;;;12.40;99.90;11.60;97187.00;;;;5033130;28;20219;-72
2022/11/07 10:36:25;;;;;;;0.10;0.10;;;12.40;99.90;11.60;97177.00;;;;5047165;28;20206;-74
2022/11/07 10:38:53;;;;;;;0.10;0.10;;;12.50;99.90;11.70;97181.00;;;;5051014;28;20201;-72
2022/11/07 10:41:25;;;;;;;0.10;0.10;;;12.50;99.90;11.90;97177.00;;;;5046938;28;20214;-72
2022/11/07 10:44:00;;;;;;;0.08;0.08;;;12.70;99.90;12.00;97170.00;;;;5049894;28;20224;-72
2022/11/07 10:46:40;;;;;;;0.10;0.10;;;12.80;99.90;12.00;97171.00;;;;5046503;28;20244;-73
2022/11/07 10:49:20;;;;;;;0.00;0.00;;;12.80;99.90;12.10;97173.00;;;;5037668;28;20228;-72
2022/11/07 10:51:49;;;;;;;0.10;0.10;;;12.90;99.90;12.00;97132.00;;;;5050656;28;20256;-72
2022/11/07 10:54:28;;;;;;;0.10;0.10;;;12.90;99.90;12.10;97178.00;;;;5051635;28;20700;-73
2022/11/07 10:57:04;;;;;;;0.00;0.00;;;12.90;99.90;12.10;97181.00;;;;5051446;28;20205;-73
2022/11/07 10:59:36;;;;;;;0.10;0.10;;;12.90;99.90;12.00;97163.00;;;;5049473;28;20214;-72
2022/11/07 11:02:21;;;;;;;0.00;0.00;;;12.80;99.90;11.90;97172.00;;;;5051466;28;20264;-73
2022/11/07 11:04:52;;;;;;;0.10;0.10;;;12.80;99.90;11.90;97171.00;;;;5048996;28;20198;-73
2022/11/07 11:07:25;;;;;;;0.10;0.10;;;12.80;99.90;11.90;97162.00;;;;5050341;28;20204;-73
2022/11/07 11:09:57;;;;;;;0.10;0.10;;;12.80;99.90;11.90;97104.00;;;;5052011;28;20200;-73
2022/11/07 11:12:29;;;;;;;0.10;0.10;;;12.80;99.90;12.00;97166.00;;;;5049942;28;20214;-73
2022/11/07 11:15:15;;;;;;;0.00;0.00;;;12.80;99.90;11.90;97149.00;;;;5052459;28;20229;-73
2022/11/07 11:17:46;;;;;;;0.10;0.10;;;12.80;99.90;11.90;97150.00;;;;5040587;28;20271;-73
2022/11/07 11:20:33;;;;;;;0.10;0.10;;;12.80;99.90;12.00;97146.00;;;;5051136;28;20672;-72
2022/11/07 11:23:05;;;;;;;0.10;0.10;;;12.80;99.90;12.00;97161.00;;;;5030026;28;20213;-75
2022/11/07 11:25:44;;;;;;;0.10;0.10;;;12.80;99.90;12.00;97159.00;;;;5041629;28;20283;-72
2022/11/07 11:28:24;;;;;;;0.10;0.10;;;12.90;99.90;12.00;97159.00;;;;5048397;28;20198;-73
2022/11/07 11:30:59;;;;;;;0.10;0.10;;;12.90;99.90;12.00;97150.00;;;;5050357;28;20252;-72